createdAt,value
2024-03-12T00:01:44.847Z,11.44
2024-03-12T00:04:12.477Z,11.42
2024-03-12T00:06:39.627Z,11.45
2024-03-12T00:09:11.015Z,11.44
2024-03-12T00:11:38.411Z,11.44
2024-03-12T00:14:05.326Z,11.44
2024-03-12T00:16:35.109Z,11.30
2024-03-12T00:19:03.398Z,11.04
2024-03-12T00:21:30.713Z,10.82
2024-03-12T00:24:00.658Z,10.71
2024-03-12T00:26:29.519Z,10.60
2024-03-12T00:28:56.567Z,10.37
2024-03-12T00:31:23.626Z,10.25
2024-03-12T00:33:50.642Z,10.18
2024-03-12T00:36:18.167Z,10.11
2024-03-12T00:38:45.071Z,10.01
2024-03-12T00:41:11.985Z,9.87
2024-03-12T00:43:38.976Z,9.80
2024-03-12T00:46:06.198Z,9.75
2024-03-12T00:48:33.321Z,9.74
2024-03-12T00:51:00.260Z,9.73
2024-03-12T00:53:27.109Z,9.73
2024-03-12T00:55:54.448Z,9.69
2024-03-12T00:58:22.268Z,9.60
2024-03-12T01:00:50.600Z,9.56
2024-03-12T01:03:18.585Z,9.53
2024-03-12T01:05:45.586Z,9.53
2024-03-12T01:08:14.289Z,9.48
2024-03-12T01:10:41.205Z,9.48
2024-03-12T01:13:12.737Z,9.44
2024-03-12T01:15:41.396Z,9.42
2024-03-12T01:18:10.361Z,9.43
2024-03-12T01:20:37.782Z,9.40
2024-03-12T01:23:07.037Z,9.41
2024-03-12T01:25:38.462Z,9.40
2024-03-12T01:28:07.540Z,9.39
2024-03-12T01:30:35.948Z,9.41
2024-03-12T01:33:03.909Z,9.45
2024-03-12T01:35:32.062Z,9.45
2024-03-12T01:37:59.492Z,9.47
2024-03-12T01:40:31.751Z,9.49
2024-03-12T01:43:04.599Z,9.45
2024-03-12T01:45:34.381Z,9.42
2024-03-12T01:48:10.304Z,9.39
2024-03-12T01:50:40.464Z,9.45
2024-03-12T01:53:08.439Z,9.42
2024-03-12T01:55:44.488Z,9.38
2024-03-12T01:58:16.593Z,9.39
2024-03-12T02:00:45.503Z,9.40
2024-03-12T02:03:12.601Z,9.40
2024-03-12T02:05:42.506Z,9.35
2024-03-12T02:08:09.871Z,9.32
2024-03-12T02:10:36.767Z,9.30
2024-03-12T02:13:03.847Z,9.22
2024-03-12T02:15:31.297Z,9.23
2024-03-12T02:17:58.380Z,9.24
2024-03-12T02:20:28.091Z,9.23
2024-03-12T02:22:57.105Z,9.22
2024-03-12T02:25:24.864Z,9.23
2024-03-12T02:27:52.689Z,9.23
2024-03-12T02:30:20.356Z,9.22
2024-03-12T02:32:48.336Z,9.19
2024-03-12T02:35:17.009Z,9.18
2024-03-12T02:37:44.414Z,9.22
2024-03-12T02:40:15.621Z,9.27
2024-03-12T02:42:45.649Z,9.20
2024-03-12T02:45:17.989Z,9.19
2024-03-12T02:47:47.614Z,9.17
2024-03-12T02:50:17.176Z,9.19
2024-03-12T02:52:46.272Z,9.20
2024-03-12T02:55:13.730Z,9.12
2024-03-12T02:57:40.715Z,9.15
2024-03-12T03:00:19.515Z,9.12
2024-03-12T03:02:47.121Z,9.17
2024-03-12T03:05:14.551Z,9.22
2024-03-12T03:07:43.090Z,9.23
2024-03-12T03:10:12.315Z,9.30
2024-03-12T03:12:40.663Z,9.32
2024-03-12T03:15:08.949Z,9.35
2024-03-12T03:17:38.861Z,9.35
2024-03-12T03:20:07.710Z,9.35
2024-03-12T03:22:36.469Z,9.37
2024-03-12T03:25:03.616Z,9.36
2024-03-12T03:27:32.055Z,9.35
2024-03-12T03:30:00.808Z,9.37
2024-03-12T03:32:27.720Z,9.37
2024-03-12T03:34:54.892Z,9.41
2024-03-12T03:37:22.063Z,9.41
2024-03-12T03:39:49.157Z,9.36
2024-03-12T03:42:16.502Z,9.41
2024-03-12T03:44:43.760Z,9.39
2024-03-12T03:47:10.676Z,9.42
2024-03-12T03:49:37.491Z,9.44
2024-03-12T03:52:04.547Z,9.44
2024-03-12T03:54:31.544Z,9.47
2024-03-12T03:56:58.395Z,9.46
2024-03-12T03:59:26.245Z,9.48
2024-03-12T04:01:53.545Z,9.50
2024-03-12T04:04:20.662Z,9.49
2024-03-12T04:06:50.292Z,9.49
2024-03-12T04:09:18.714Z,9.49
2024-03-12T04:11:45.654Z,9.50
2024-03-12T04:14:12.475Z,9.46
2024-03-12T04:16:39.265Z,9.45
2024-03-12T04:19:06.283Z,9.49
2024-03-12T04:21:33.368Z,9.55
2024-03-12T04:24:00.268Z,9.54
2024-03-12T04:26:30.285Z,9.59
2024-03-12T04:28:57.324Z,9.49
2024-03-12T04:31:24.505Z,9.52
2024-03-12T04:33:53.894Z,9.57
2024-03-12T04:36:24.297Z,9.59
2024-03-12T04:38:51.767Z,9.64
2024-03-12T04:41:22.164Z,9.65
2024-03-12T04:43:49.822Z,9.61
2024-03-12T04:46:16.815Z,9.67
2024-03-12T04:48:44.374Z,9.67
2024-03-12T04:51:12.247Z,9.71
2024-03-12T04:53:39.114Z,9.66
2024-03-12T04:56:06.003Z,9.67
2024-03-12T04:58:32.791Z,9.74
2024-03-12T05:01:00.135Z,9.79
2024-03-12T05:03:32.416Z,9.82
2024-03-12T05:05:59.223Z,9.75
2024-03-12T05:08:26.172Z,9.69
2024-03-12T05:10:53.079Z,9.71
2024-03-12T05:13:22.843Z,9.75
2024-03-12T05:15:49.720Z,9.76
2024-03-12T05:18:16.615Z,9.78
2024-03-12T05:20:43.440Z,9.74
2024-03-12T05:23:11.619Z,9.75
2024-03-12T05:25:42.531Z,9.78
2024-03-12T05:28:11.072Z,9.81
2024-03-12T05:30:39.254Z,9.82
2024-03-12T05:33:11.060Z,9.86
2024-03-12T05:35:40.373Z,9.81
2024-03-12T05:38:23.643Z,9.80
2024-03-12T05:41:16.323Z,9.73
2024-03-12T05:44:01.684Z,9.70
2024-03-12T05:46:48.639Z,9.68
2024-03-12T05:49:16.083Z,9.71
2024-03-12T05:51:43.520Z,9.70
2024-03-12T05:54:11.143Z,9.67
2024-03-12T05:56:38.969Z,9.65
2024-03-12T05:59:06.096Z,9.63
2024-03-12T06:01:33.787Z,9.53
2024-03-12T06:04:00.957Z,9.50
2024-03-12T06:06:27.991Z,9.51
2024-03-12T06:08:55.089Z,9.45
2024-03-12T06:11:22.194Z,9.45
2024-03-12T06:13:49.153Z,9.41
2024-03-12T06:16:19.720Z,9.39
2024-03-12T06:18:46.778Z,9.33
2024-03-12T06:21:13.525Z,9.37
2024-03-12T06:23:41.066Z,9.32
2024-03-12T06:26:08.252Z,9.29
2024-03-12T06:28:35.795Z,9.32
2024-03-12T06:31:05.689Z,9.33
2024-03-12T06:33:33.659Z,9.32
2024-03-12T06:36:00.638Z,9.31
2024-03-12T06:38:27.435Z,9.27
2024-03-12T06:40:54.912Z,9.29
2024-03-12T06:43:22.630Z,9.25
2024-03-12T06:45:50.528Z,9.27
2024-03-12T06:48:19.681Z,9.23
2024-03-12T06:50:47.064Z,9.20
2024-03-12T06:53:17.081Z,9.18
2024-03-12T06:55:47.153Z,9.21
2024-03-12T06:58:20.595Z,9.15
2024-03-12T07:00:49.520Z,9.16
2024-03-12T07:03:18.403Z,9.16
2024-03-12T07:05:48.409Z,9.16
2024-03-12T07:08:18.401Z,9.16
2024-03-12T07:10:46.780Z,9.21
2024-03-12T07:13:14.238Z,9.27
2024-03-12T07:15:43.760Z,9.31
2024-03-12T07:18:11.073Z,9.28
2024-03-12T07:20:38.218Z,9.32
2024-03-12T07:23:07.044Z,9.39
2024-03-12T07:25:34.654Z,9.50
2024-03-12T07:28:07.862Z,9.56
2024-03-12T07:30:36.357Z,9.53
2024-03-12T07:33:04.863Z,9.48
2024-03-12T07:35:36.279Z,9.51
2024-03-12T07:38:05.360Z,9.54
2024-03-12T07:40:33.581Z,9.58
2024-03-12T07:43:01.110Z,9.61
2024-03-12T07:45:28.846Z,9.71
2024-03-12T07:47:57.504Z,9.76
2024-03-12T07:50:29.651Z,9.70
2024-03-12T07:52:57.081Z,9.75
2024-03-12T07:55:24.362Z,9.77
2024-03-12T07:57:51.768Z,9.81
2024-03-12T08:00:20.651Z,9.82
2024-03-12T08:02:47.673Z,9.87
2024-03-12T08:05:14.655Z,9.78
2024-03-12T08:07:41.561Z,9.78
2024-03-12T08:10:11.087Z,9.78
2024-03-12T08:12:40.931Z,9.76
2024-03-12T08:15:10.368Z,9.75
2024-03-12T08:17:39.366Z,9.72
2024-03-12T08:20:07.616Z,9.64
2024-03-12T08:22:34.744Z,9.58
2024-03-12T08:25:02.315Z,9.57
2024-03-12T08:27:30.676Z,9.56
2024-03-12T08:29:58.693Z,9.57
2024-03-12T08:32:26.559Z,9.67
2024-03-12T08:34:53.818Z,9.58
2024-03-12T08:37:23.746Z,9.61
2024-03-12T08:39:54.323Z,9.70
2024-03-12T08:42:21.875Z,9.63
2024-03-12T08:44:49.133Z,9.73
2024-03-12T08:47:16.335Z,9.81
2024-03-12T08:49:44.077Z,9.92
2024-03-12T08:52:11.018Z,9.96
2024-03-12T08:54:38.722Z,9.99
2024-03-12T08:57:06.021Z,10.01
2024-03-12T08:59:33.018Z,10.06
2024-03-12T09:02:01.383Z,10.11
2024-03-12T09:04:31.751Z,10.13
2024-03-12T09:06:59.019Z,10.24
2024-03-12T09:09:27.930Z,10.21
2024-03-12T09:11:57.170Z,10.18
2024-03-12T09:14:24.715Z,10.22
2024-03-12T09:16:52.146Z,10.13
2024-03-12T09:19:19.067Z,10.06
2024-03-12T09:21:46.331Z,10.07
2024-03-12T09:24:13.181Z,10.09
2024-03-12T09:26:40.137Z,10.11
2024-03-12T09:29:07.512Z,10.08
2024-03-12T09:31:36.100Z,10.12
2024-03-12T09:34:05.528Z,10.16
2024-03-12T09:36:35.239Z,10.21
2024-03-12T09:39:02.476Z,10.24
2024-03-12T09:41:30.263Z,10.26
2024-03-12T09:43:57.458Z,10.39
2024-03-12T09:46:25.122Z,10.51
2024-03-12T09:48:53.314Z,10.59
2024-03-12T09:51:22.537Z,10.66
2024-03-12T09:53:52.337Z,10.62
2024-03-12T09:56:20.185Z,10.57
2024-03-12T09:58:49.171Z,10.50
2024-03-12T10:01:16.501Z,10.46
2024-03-12T10:03:43.926Z,10.52
2024-03-12T10:06:11.167Z,10.53
2024-03-12T10:08:38.326Z,10.60
2024-03-12T10:11:10.201Z,10.67
2024-03-12T10:13:41.682Z,10.55
2024-03-12T10:16:09.830Z,10.54
2024-03-12T10:18:38.929Z,10.58
2024-03-12T10:21:08.320Z,10.38
2024-03-12T10:23:38.921Z,10.25
2024-03-12T10:26:10.815Z,10.17
2024-03-12T10:28:39.147Z,10.10
2024-03-12T10:31:11.718Z,10.01
2024-03-12T10:33:43.458Z,10.06
2024-03-12T10:36:12.472Z,10.07
2024-03-12T10:38:41.697Z,10.09
2024-03-12T10:41:22.565Z,10.02
2024-03-12T10:43:52.003Z,10.05
2024-03-12T10:46:20.769Z,10.04
2024-03-12T10:48:49.863Z,10.04
2024-03-12T10:51:18.936Z,10.00
2024-03-12T10:53:54.005Z,9.83
2024-03-12T10:56:23.063Z,9.74
2024-03-12T10:58:50.555Z,9.71
2024-03-12T11:01:19.898Z,9.69
2024-03-12T11:03:48.369Z,9.66
2024-03-12T11:06:20.257Z,9.60
2024-03-12T11:08:47.507Z,9.57
2024-03-12T11:11:15.842Z,9.51
2024-03-12T11:13:43.035Z,9.53
2024-03-12T11:16:20.517Z,9.48
2024-03-12T11:18:50.849Z,9.55
2024-03-12T11:21:31.220Z,9.52
2024-03-12T11:23:59.314Z,9.57
2024-03-12T11:26:36.944Z,9.58
2024-03-12T11:29:04.154Z,9.61
2024-03-12T11:31:41.370Z,9.56
2024-03-12T11:34:08.270Z,9.51
2024-03-12T11:36:41.430Z,9.49
2024-03-12T11:39:16.718Z,9.57
2024-03-12T11:41:58.930Z,9.44
2024-03-12T11:44:54.886Z,9.48
2024-03-12T11:47:38.362Z,9.53
2024-03-12T11:50:26.165Z,9.61
2024-03-12T11:52:53.068Z,9.70
2024-03-12T11:55:52.557Z,9.55
2024-03-12T11:58:21.590Z,9.81
2024-03-12T12:00:52.274Z,9.89
2024-03-12T12:03:20.259Z,9.93
2024-03-12T12:05:47.345Z,9.87
2024-03-12T12:08:16.270Z,9.78
2024-03-12T12:10:43.478Z,9.72
2024-03-12T12:13:15.682Z,9.76
2024-03-12T12:15:55.794Z,9.87
2024-03-12T12:18:23.051Z,9.96
2024-03-12T12:20:49.890Z,9.97
2024-03-12T12:23:16.656Z,9.95
2024-03-12T12:25:49.033Z,9.95
2024-03-12T12:28:17.729Z,9.90
2024-03-12T12:30:47.537Z,9.92
2024-03-12T12:33:15.232Z,9.99
2024-03-12T12:35:48.596Z,10.00
2024-03-12T12:38:18.269Z,10.02
2024-03-12T12:40:46.549Z,10.04
2024-03-12T12:43:21.037Z,10.02
2024-03-12T12:45:48.594Z,9.99
2024-03-12T12:48:17.083Z,10.01
2024-03-12T12:50:44.596Z,10.13
2024-03-12T12:53:11.394Z,10.02
2024-03-12T12:55:38.341Z,9.94
2024-03-12T12:58:08.157Z,9.97
2024-03-12T13:00:41.020Z,9.95
2024-03-12T13:03:19.094Z,9.95
2024-03-12T13:05:47.269Z,9.99
2024-03-12T13:08:42.801Z,9.85
2024-03-12T13:11:10.596Z,9.98
2024-03-12T13:13:39.011Z,10.14
2024-03-12T13:16:16.421Z,10.12
2024-03-12T13:18:48.341Z,10.20
2024-03-12T13:21:16.763Z,10.20
2024-03-12T13:23:47.053Z,10.19
2024-03-12T13:26:18.659Z,10.23
2024-03-12T13:28:50.643Z,10.31
2024-03-12T13:31:17.687Z,10.41
2024-03-12T13:33:45.346Z,10.49
2024-03-12T13:36:12.910Z,10.48
2024-03-12T13:38:43.618Z,10.49
2024-03-12T13:41:11.400Z,10.48
2024-03-12T13:43:39.296Z,10.51
2024-03-12T13:46:06.890Z,10.63
2024-03-12T13:48:37.745Z,10.54
2024-03-12T13:51:08.772Z,10.53
2024-03-12T13:53:36.329Z,10.57
2024-03-12T13:56:06.121Z,10.54
2024-03-12T13:58:33.406Z,10.50
2024-03-12T14:01:00.801Z,10.52
2024-03-12T14:03:29.636Z,10.44
2024-03-12T14:05:57.502Z,10.47
2024-03-12T14:08:24.797Z,10.49
2024-03-12T14:10:53.135Z,10.43
2024-03-12T14:13:22.597Z,10.39
2024-03-12T14:15:49.769Z,10.42
2024-03-12T14:18:17.259Z,10.37
2024-03-12T14:20:44.389Z,10.35
2024-03-12T14:23:11.341Z,10.37
2024-03-12T14:25:38.751Z,10.35
2024-03-12T14:28:08.529Z,10.24
2024-03-12T14:30:35.405Z,10.25
2024-03-12T14:33:02.530Z,10.12
2024-03-12T14:35:29.424Z,10.00
2024-03-12T14:37:57.086Z,9.95
2024-03-12T14:40:24.118Z,9.90
2024-03-12T14:42:53.374Z,9.80
2024-03-12T14:45:20.428Z,9.75
2024-03-12T14:47:47.364Z,9.66
2024-03-12T14:50:15.508Z,9.52
2024-03-12T14:52:42.674Z,9.50
2024-03-12T14:55:11.124Z,9.49
2024-03-12T14:57:38.964Z,9.47
2024-03-12T15:00:09.357Z,9.46
2024-03-12T15:02:39.534Z,9.54
2024-03-12T15:05:12.418Z,9.54
2024-03-12T15:07:41.160Z,9.59
2024-03-12T15:10:11.523Z,9.60
2024-03-12T15:12:40.993Z,9.60
2024-03-12T15:15:13.542Z,9.60
2024-03-12T15:17:43.319Z,9.58
2024-03-12T15:20:20.145Z,9.57
2024-03-12T15:22:50.405Z,9.42
2024-03-12T15:25:20.443Z,9.54
2024-03-12T15:27:50.386Z,9.49
2024-03-12T15:30:17.997Z,9.55
2024-03-12T15:32:47.012Z,9.58
2024-03-12T15:35:15.565Z,9.51
2024-03-12T15:37:43.534Z,9.51
2024-03-12T15:40:12.953Z,9.45
2024-03-12T15:42:45.157Z,9.46
2024-03-12T15:45:16.279Z,9.40
2024-03-12T15:47:45.019Z,9.35
2024-03-12T15:50:13.060Z,9.24
2024-03-12T15:52:40.416Z,9.22
2024-03-12T15:55:09.330Z,9.13
2024-03-12T15:57:38.646Z,9.04
2024-03-12T16:00:10.518Z,9.01
2024-03-12T16:02:40.779Z,9.03
2024-03-12T16:05:07.978Z,9.01
2024-03-12T16:07:40.632Z,9.08
2024-03-12T16:10:12.292Z,9.04
2024-03-12T16:12:42.689Z,9.07
2024-03-12T16:15:12.037Z,9.08
2024-03-12T16:17:39.025Z,9.06
2024-03-12T16:20:13.575Z,9.02
2024-03-12T16:22:42.005Z,9.01
2024-03-12T16:25:09.651Z,9.06
2024-03-12T16:27:37.047Z,9.09
2024-03-12T16:30:05.374Z,9.12
2024-03-12T16:32:33.766Z,9.07
2024-03-12T16:35:00.965Z,9.03
2024-03-12T16:37:28.459Z,9.07
2024-03-12T16:39:55.588Z,9.01
2024-03-12T16:42:22.956Z,8.95
2024-03-12T16:44:51.335Z,8.94
2024-03-12T16:47:18.178Z,8.95
2024-03-12T16:49:46.710Z,8.96
2024-03-12T16:52:15.410Z,8.90
2024-03-12T16:54:43.066Z,8.92
2024-03-12T16:57:10.685Z,8.89
2024-03-12T16:59:37.828Z,8.89
2024-03-12T17:02:09.510Z,8.92
2024-03-12T17:04:38.202Z,8.92
2024-03-12T17:07:09.333Z,8.93
2024-03-12T17:09:43.025Z,8.97
2024-03-12T17:12:10.693Z,9.01
2024-03-12T17:14:37.713Z,9.05
2024-03-12T17:17:08.506Z,9.08
2024-03-12T17:19:40.294Z,9.08
2024-03-12T17:22:07.733Z,9.18
2024-03-12T17:24:35.918Z,9.14
2024-03-12T17:27:06.169Z,9.15
2024-03-12T17:29:33.318Z,9.24
2024-03-12T17:32:00.734Z,9.28
2024-03-12T17:34:29.017Z,9.28
2024-03-12T17:37:00.344Z,9.33
2024-03-12T17:39:33.523Z,9.27
2024-03-12T17:42:01.919Z,9.31
2024-03-12T17:44:29.352Z,9.41
2024-03-12T17:46:56.895Z,9.37
2024-03-12T17:49:26.717Z,9.30
2024-03-12T17:51:55.174Z,9.33
2024-03-12T17:54:22.770Z,9.32
2024-03-12T17:56:51.665Z,9.32
2024-03-12T17:59:20.329Z,9.38
2024-03-12T18:01:48.120Z,9.40
2024-03-12T18:04:15.770Z,9.43
2024-03-12T18:06:45.374Z,9.53
2024-03-12T18:09:13.544Z,9.47
2024-03-12T18:11:43.693Z,9.54
2024-03-12T18:14:11.648Z,9.47
2024-03-12T18:16:39.453Z,9.50
2024-03-12T18:19:07.371Z,9.53
2024-03-12T18:21:35.446Z,9.51
2024-03-12T18:24:02.449Z,9.53
2024-03-12T18:26:29.472Z,9.60
2024-03-12T18:28:58.023Z,9.53
2024-03-12T18:31:25.749Z,9.67
2024-03-12T18:33:52.783Z,9.60
2024-03-12T18:36:20.598Z,9.55
2024-03-12T18:38:47.771Z,9.58
2024-03-12T18:41:15.318Z,9.61
2024-03-12T18:43:42.698Z,9.66
2024-03-12T18:46:09.961Z,9.66
2024-03-12T18:48:37.558Z,9.67
2024-03-12T18:51:06.056Z,9.69
2024-03-12T18:53:34.930Z,9.71
2024-03-12T18:56:04.199Z,9.77
2024-03-12T18:58:31.596Z,9.82
2024-03-12T19:00:59.426Z,9.85
2024-03-12T19:03:40.178Z,9.84
2024-03-12T19:06:19.214Z,9.87
2024-03-12T19:08:53.568Z,9.85
2024-03-12T19:11:21.537Z,9.89
2024-03-12T19:13:49.600Z,9.87
2024-03-12T19:16:21.805Z,9.85
2024-03-12T19:18:50.579Z,9.84
2024-03-12T19:21:20.933Z,9.80
2024-03-12T19:23:49.792Z,9.79
2024-03-12T19:26:19.066Z,9.84
2024-03-12T19:28:46.802Z,9.81
2024-03-12T19:31:15.408Z,9.85
2024-03-12T19:33:43.498Z,9.87
2024-03-12T19:36:12.534Z,9.91
2024-03-12T19:38:40.372Z,9.93
2024-03-12T19:41:08.450Z,9.94
2024-03-12T19:43:35.625Z,10.00
2024-03-12T19:46:02.810Z,9.93
2024-03-12T19:48:30.111Z,9.97
2024-03-12T19:50:57.185Z,10.00
2024-03-12T19:53:24.188Z,9.98
2024-03-12T19:55:52.596Z,9.99
2024-03-12T19:58:19.868Z,10.09
2024-03-12T20:00:49.388Z,9.98
2024-03-12T20:03:23.271Z,9.96
2024-03-12T20:05:51.033Z,9.93
2024-03-12T20:08:18.192Z,9.93
2024-03-12T20:10:47.119Z,9.92
2024-03-12T20:13:14.582Z,9.88
2024-03-12T20:15:46.052Z,9.94
2024-03-12T20:18:14.814Z,9.94
2024-03-12T20:20:44.495Z,9.96
2024-03-12T20:23:12.069Z,9.98
2024-03-12T20:25:39.246Z,9.97
2024-03-12T20:28:10.961Z,10.01
2024-03-12T20:30:40.190Z,10.01
2024-03-12T20:33:09.765Z,10.03
2024-03-12T20:35:39.334Z,10.10
2024-03-12T20:38:08.018Z,10.11
2024-03-12T20:40:35.172Z,10.14
2024-03-12T20:43:02.215Z,10.12
2024-03-12T20:45:30.153Z,10.09
2024-03-12T20:47:57.418Z,10.12
2024-03-12T20:50:25.002Z,10.15
2024-03-12T20:52:52.187Z,10.18
2024-03-12T20:55:20.002Z,10.18
2024-03-12T20:57:49.052Z,10.24
2024-03-12T21:00:33.324Z,10.22
2024-03-12T21:03:00.858Z,10.29
2024-03-12T21:05:33.044Z,10.33
2024-03-12T21:08:01.464Z,10.35
2024-03-12T21:10:28.426Z,10.39
2024-03-12T21:12:56.929Z,10.37
2024-03-12T21:15:23.932Z,10.32
2024-03-12T21:17:51.068Z,10.36
2024-03-12T21:20:33.503Z,10.40
2024-03-12T21:23:00.775Z,10.41
2024-03-12T21:25:30.243Z,10.47
2024-03-12T21:27:58.976Z,10.32
2024-03-12T21:30:26.193Z,10.36
2024-03-12T21:32:54.799Z,10.40
2024-03-12T21:35:22.035Z,10.45
2024-03-12T21:37:48.895Z,10.48
2024-03-12T21:40:17.452Z,10.46
2024-03-12T21:42:45.754Z,10.47
2024-03-12T21:45:16.832Z,10.44
2024-03-12T21:47:46.780Z,10.40
2024-03-12T21:50:15.574Z,10.41
2024-03-12T21:52:43.152Z,10.43
2024-03-12T21:55:12.145Z,10.46
2024-03-12T21:57:41.052Z,10.49
2024-03-12T22:00:29.879Z,10.43
2024-03-12T22:02:58.730Z,10.47
2024-03-12T22:05:25.912Z,10.49
2024-03-12T22:07:53.441Z,10.43
2024-03-12T22:10:20.527Z,10.43
2024-03-12T22:12:48.121Z,10.43
2024-03-12T22:15:16.146Z,10.53
2024-03-12T22:17:45.897Z,10.44
2024-03-12T22:20:19.910Z,10.50
2024-03-12T22:22:50.594Z,10.43
2024-03-12T22:25:19.961Z,10.44
2024-03-12T22:27:49.323Z,10.43
2024-03-12T22:30:17.777Z,10.41
2024-03-12T22:32:46.331Z,10.41
2024-03-12T22:35:13.607Z,10.40
2024-03-12T22:37:43.454Z,10.41
2024-03-12T22:40:13.720Z,10.43
2024-03-12T22:42:41.347Z,10.52
2024-03-12T22:45:10.806Z,10.34
2024-03-12T22:47:40.697Z,10.31
2024-03-12T22:50:09.261Z,10.36
2024-03-12T22:52:37.663Z,10.35
2024-03-12T22:55:08.716Z,10.33
2024-03-12T22:57:39.682Z,10.40
2024-03-12T23:00:25.243Z,10.35
2024-03-12T23:03:03.697Z,10.38
2024-03-12T23:05:35.548Z,10.43
2024-03-12T23:08:07.182Z,10.37
2024-03-12T23:10:37.837Z,10.25
2024-03-12T23:13:05.723Z,10.32
2024-03-12T23:15:32.802Z,10.29
2024-03-12T23:18:04.119Z,10.35
2024-03-12T23:20:31.989Z,10.37
2024-03-12T23:22:59.467Z,10.32
2024-03-12T23:25:26.311Z,10.32
2024-03-12T23:27:55.528Z,10.38
2024-03-12T23:30:23.239Z,10.37
2024-03-12T23:32:52.816Z,10.36
2024-03-12T23:35:20.032Z,10.40
2024-03-12T23:37:46.917Z,10.37
2024-03-12T23:40:13.826Z,10.34
2024-03-12T23:42:41.389Z,10.35
2024-03-12T23:45:11.624Z,10.30
2024-03-12T23:47:40.585Z,10.31
2024-03-12T23:50:12.692Z,10.26
2024-03-12T23:52:43.065Z,10.21
2024-03-12T23:55:12.364Z,10.16
2024-03-12T23:57:39.767Z,10.11
